Terminal Aerodrome Forecast
Issued by NWS Denver/Boulder, CO

Home | Current Version | Previous Version | Graphics & Text | Print | Product List | Glossary On
Versions: 1 2 3 4 5 6 7 8 9 10 11 12 13 14 15 16 17 18 19 20 21 22 23 24 25 26 27 28 29 30 31 32 33 34 35 36 37 38 39 40 41 42 43 44 45 46 47 48 49 50
000
FTUS45 KBOU 240531
TAFDEN
TAF
KDEN 240531Z 2406/2512 22006KT P6SM FEW060 SCT100
     FM240900 21005KT P6SM VCFG SCT006 SCT012
      TEMPO 2410/2414 3/4SM BR BKN005
     FM241500 VRB06KT P6SM SCT025 SCT080
     FM241900 14010KT P6SM BKN030 BKN050
      TEMPO 2420/2424 4SM -TSRA BKN025CB OVC050
     FM250000 11010KT P6SM -SHRA BKN025 OVC050
      TEMPO 2500/2504 3SM -TSRA BKN015CB
     FM250400 16007KT P6SM SCT040 BKN090=

USA.gov is the U.S. government's official web portal to all federal, state and local government web resources and services.